sensor_id;sensor_type;location;lat;lon;timestamp;P1;durP1;ratioP1;P2;durP2;ratioP2
7759;SDS011;3924;48.830;9.262;2022-07-24T00:01:47;7.13;;;6.47;;
7759;SDS011;3924;48.830;9.262;2022-07-24T00:04:14;7.30;;;6.53;;
7759;SDS011;3924;48.830;9.262;2022-07-24T00:06:41;7.43;;;6.60;;
7759;SDS011;3924;48.830;9.262;2022-07-24T00:09:08;8.10;;;6.90;;
7759;SDS011;3924;48.830;9.262;2022-07-24T00:11:35;9.10;;;6.80;;
7759;SDS011;3924;48.830;9.262;2022-07-24T00:14:01;7.97;;;7.17;;
7759;SDS011;3924;48.830;9.262;2022-07-24T00:16:28;7.30;;;6.60;;
7759;SDS011;3924;48.830;9.262;2022-07-24T00:18:55;9.47;;;7.13;;
7759;SDS011;3924;48.830;9.262;2022-07-24T00:21:22;7.27;;;6.67;;
7759;SDS011;3924;48.830;9.262;2022-07-24T00:23:48;8.23;;;7.43;;
7759;SDS011;3924;48.830;9.262;2022-07-24T00:26:15;8.43;;;7.43;;
7759;SDS011;3924;48.830;9.262;2022-07-24T00:28:41;7.50;;;6.80;;
7759;SDS011;3924;48.830;9.262;2022-07-24T00:31:08;9.07;;;7.50;;
7759;SDS011;3924;48.830;9.262;2022-07-24T00:33:35;7.53;;;6.83;;
7759;SDS011;3924;48.830;9.262;2022-07-24T00:36:02;7.50;;;6.80;;
7759;SDS011;3924;48.830;9.262;2022-07-24T00:38:28;8.17;;;6.83;;
7759;SDS011;3924;48.830;9.262;2022-07-24T00:40:55;7.67;;;6.93;;
7759;SDS011;3924;48.830;9.262;2022-07-24T00:43:21;8.10;;;6.90;;
7759;SDS011;3924;48.830;9.262;2022-07-24T00:45:48;9.90;;;7.13;;
7759;SDS011;3924;48.830;9.262;2022-07-24T00:48:14;7.37;;;6.63;;
7759;SDS011;3924;48.830;9.262;2022-07-24T00:50:42;7.87;;;7.17;;
7759;SDS011;3924;48.830;9.262;2022-07-24T00:53:10;9.23;;;7.57;;
7759;SDS011;3924;48.830;9.262;2022-07-24T00:55:37;9.00;;;7.27;;
7759;SDS011;3924;48.830;9.262;2022-07-24T00:58:03;8.53;;;7.23;;
7759;SDS011;3924;48.830;9.262;2022-07-24T01:00:30;7.63;;;6.93;;
7759;SDS011;3924;48.830;9.262;2022-07-24T01:02:56;8.70;;;7.27;;
7759;SDS011;3924;48.830;9.262;2022-07-24T01:05:24;8.87;;;7.43;;
7759;SDS011;3924;48.830;9.262;2022-07-24T01:07:51;7.07;;;6.37;;
7759;SDS011;3924;48.830;9.262;2022-07-24T01:10:18;8.13;;;7.37;;
7759;SDS011;3924;48.830;9.262;2022-07-24T01:12:45;7.53;;;6.83;;
7759;SDS011;3924;48.830;9.262;2022-07-24T01:15:12;9.13;;;7.73;;
7759;SDS011;3924;48.830;9.262;2022-07-24T01:17:39;8.10;;;7.33;;
7759;SDS011;3924;48.830;9.262;2022-07-24T01:20:07;8.07;;;7.30;;
7759;SDS011;3924;48.830;9.262;2022-07-24T01:22:35;8.27;;;7.20;;
7759;SDS011;3924;48.830;9.262;2022-07-24T01:25:02;7.77;;;7.07;;
7759;SDS011;3924;48.830;9.262;2022-07-24T01:27:28;8.23;;;7.43;;
7759;SDS011;3924;48.830;9.262;2022-07-24T01:29:55;8.87;;;7.50;;
7759;SDS011;3924;48.830;9.262;2022-07-24T01:32:21;7.80;;;7.10;;
7759;SDS011;3924;48.830;9.262;2022-07-24T01:34:48;9.03;;;7.17;;
7759;SDS011;3924;48.830;9.262;2022-07-24T01:37:14;9.00;;;6.80;;
7759;SDS011;3924;48.830;9.262;2022-07-24T01:39:41;7.60;;;6.93;;
7759;SDS011;3924;48.830;9.262;2022-07-24T01:42:07;8.57;;;7.67;;
7759;SDS011;3924;48.830;9.262;2022-07-24T01:44:34;7.70;;;7.00;;
7759;SDS011;3924;48.830;9.262;2022-07-24T01:47:00;8.03;;;6.73;;
7759;SDS011;3924;48.830;9.262;2022-07-24T01:49:26;8.33;;;7.33;;
7759;SDS011;3924;48.830;9.262;2022-07-24T01:51:53;8.03;;;7.13;;
7759;SDS011;3924;48.830;9.262;2022-07-24T01:54:19;8.63;;;7.67;;
7759;SDS011;3924;48.830;9.262;2022-07-24T01:56:46;8.40;;;7.60;;
7759;SDS011;3924;48.830;9.262;2022-07-24T01:59:12;8.80;;;7.97;;
7759;SDS011;3924;48.830;9.262;2022-07-24T02:01:39;8.43;;;7.63;;
7759;SDS011;3924;48.830;9.262;2022-07-24T02:04:06;18.30;;;7.90;;
7759;SDS011;3924;48.830;9.262;2022-07-24T02:06:32;8.00;;;7.23;;
7759;SDS011;3924;48.830;9.262;2022-07-24T02:08:59;8.10;;;7.30;;
7759;SDS011;3924;48.830;9.262;2022-07-24T02:11:26;7.63;;;7.03;;
7759;SDS011;3924;48.830;9.262;2022-07-24T02:13:52;8.20;;;7.43;;
7759;SDS011;3924;48.830;9.262;2022-07-24T02:16:21;8.53;;;7.63;;
7759;SDS011;3924;48.830;9.262;2022-07-24T02:18:48;8.57;;;7.40;;
7759;SDS011;3924;48.830;9.262;2022-07-24T02:21:14;9.00;;;6.97;;
7759;SDS011;3924;48.830;9.262;2022-07-24T02:23:40;7.97;;;7.17;;
7759;SDS011;3924;48.830;9.262;2022-07-24T02:26:07;8.03;;;7.33;;
7759;SDS011;3924;48.830;9.262;2022-07-24T02:28:33;8.13;;;7.33;;
7759;SDS011;3924;48.830;9.262;2022-07-24T02:31:00;8.07;;;7.37;;
7759;SDS011;3924;48.830;9.262;2022-07-24T02:33:26;8.73;;;6.93;;
7759;SDS011;3924;48.830;9.262;2022-07-24T02:35:53;11.00;;;7.40;;
7759;SDS011;3924;48.830;9.262;2022-07-24T02:38:19;8.33;;;7.27;;
7759;SDS011;3924;48.830;9.262;2022-07-24T02:40:46;7.70;;;7.00;;
7759;SDS011;3924;48.830;9.262;2022-07-24T02:43:12;8.47;;;7.60;;
7759;SDS011;3924;48.830;9.262;2022-07-24T02:45:39;7.60;;;6.93;;
7759;SDS011;3924;48.830;9.262;2022-07-24T02:48:06;7.80;;;7.10;;
7759;SDS011;3924;48.830;9.262;2022-07-24T02:50:33;7.60;;;7.00;;
7759;SDS011;3924;48.830;9.262;2022-07-24T02:53:01;7.40;;;6.80;;
7759;SDS011;3924;48.830;9.262;2022-07-24T02:55:28;10.20;;;7.67;;
7759;SDS011;3924;48.830;9.262;2022-07-24T02:57:55;8.03;;;7.23;;
7759;SDS011;3924;48.830;9.262;2022-07-24T03:00:22;7.37;;;6.67;;
7759;SDS011;3924;48.830;9.262;2022-07-24T03:02:49;8.17;;;7.40;;
7759;SDS011;3924;48.830;9.262;2022-07-24T03:05:15;7.80;;;7.07;;
7759;SDS011;3924;48.830;9.262;2022-07-24T03:07:42;10.67;;;7.23;;
7759;SDS011;3924;48.830;9.262;2022-07-24T03:10:09;7.73;;;7.03;;
7759;SDS011;3924;48.830;9.262;2022-07-24T03:12:37;8.47;;;7.67;;
7759;SDS011;3924;48.830;9.262;2022-07-24T03:15:03;10.97;;;8.27;;
7759;SDS011;3924;48.830;9.262;2022-07-24T03:17:30;8.37;;;7.57;;
7759;SDS011;3924;48.830;9.262;2022-07-24T03:19:57;8.70;;;7.47;;
7759;SDS011;3924;48.830;9.262;2022-07-24T03:22:23;7.93;;;6.87;;
7759;SDS011;3924;48.830;9.262;2022-07-24T03:24:50;8.30;;;7.30;;
7759;SDS011;3924;48.830;9.262;2022-07-24T03:27:16;9.93;;;7.83;;
7759;SDS011;3924;48.830;9.262;2022-07-24T03:29:43;9.33;;;7.43;;
7759;SDS011;3924;48.830;9.262;2022-07-24T03:32:09;8.10;;;7.30;;
7759;SDS011;3924;48.830;9.262;2022-07-24T03:34:36;7.20;;;6.50;;
7759;SDS011;3924;48.830;9.262;2022-07-24T03:37:02;8.37;;;7.40;;
7759;SDS011;3924;48.830;9.262;2022-07-24T03:39:29;8.10;;;7.30;;
7759;SDS011;3924;48.830;9.262;2022-07-24T03:41:55;7.77;;;7.07;;
7759;SDS011;3924;48.830;9.262;2022-07-24T03:44:22;9.27;;;7.63;;
7759;SDS011;3924;48.830;9.262;2022-07-24T03:46:48;7.60;;;7.00;;
7759;SDS011;3924;48.830;9.262;2022-07-24T03:49:15;8.70;;;7.17;;
7759;SDS011;3924;48.830;9.262;2022-07-24T03:51:42;8.70;;;7.80;;
7759;SDS011;3924;48.830;9.262;2022-07-24T03:54:09;8.00;;;6.90;;
7759;SDS011;3924;48.830;9.262;2022-07-24T03:56:35;8.00;;;7.20;;
7759;SDS011;3924;48.830;9.262;2022-07-24T03:59:02;7.60;;;6.90;;
7759;SDS011;3924;48.830;9.262;2022-07-24T04:01:29;8.63;;;7.10;;
7759;SDS011;3924;48.830;9.262;2022-07-24T04:03:55;15.13;;;7.20;;
7759;SDS011;3924;48.830;9.262;2022-07-24T04:06:24;8.63;;;7.27;;
7759;SDS011;3924;48.830;9.262;2022-07-24T04:08:50;7.93;;;7.23;;
7759;SDS011;3924;48.830;9.262;2022-07-24T04:11:17;7.57;;;6.87;;
7759;SDS011;3924;48.830;9.262;2022-07-24T04:13:43;8.03;;;7.20;;
7759;SDS011;3924;48.830;9.262;2022-07-24T04:16:10;7.67;;;6.97;;
7759;SDS011;3924;48.830;9.262;2022-07-24T04:18:36;10.03;;;7.60;;
7759;SDS011;3924;48.830;9.262;2022-07-24T04:21:03;8.77;;;7.50;;
7759;SDS011;3924;48.830;9.262;2022-07-24T04:23:29;8.73;;;7.93;;
7759;SDS011;3924;48.830;9.262;2022-07-24T04:25:56;8.57;;;7.70;;
7759;SDS011;3924;48.830;9.262;2022-07-24T04:28:23;8.30;;;7.47;;
7759;SDS011;3924;48.830;9.262;2022-07-24T04:30:49;7.87;;;7.17;;
7759;SDS011;3924;48.830;9.262;2022-07-24T04:33:16;8.90;;;8.00;;
7759;SDS011;3924;48.830;9.262;2022-07-24T04:35:42;9.23;;;7.33;;
7759;SDS011;3924;48.830;9.262;2022-07-24T04:38:09;10.47;;;7.57;;
7759;SDS011;3924;48.830;9.262;2022-07-24T04:40:35;8.00;;;7.23;;
7759;SDS011;3924;48.830;9.262;2022-07-24T04:43:02;8.57;;;7.67;;
7759;SDS011;3924;48.830;9.262;2022-07-24T04:45:28;8.33;;;7.60;;
7759;SDS011;3924;48.830;9.262;2022-07-24T04:48:01;17.63;;;8.30;;
7759;SDS011;3924;48.830;9.262;2022-07-24T04:50:27;7.87;;;7.20;;
7759;SDS011;3924;48.830;9.262;2022-07-24T04:52:54;8.97;;;7.60;;
7759;SDS011;3924;48.830;9.262;2022-07-24T04:55:20;8.13;;;7.33;;
7759;SDS011;3924;48.830;9.262;2022-07-24T04:57:47;8.27;;;7.30;;
7759;SDS011;3924;48.830;9.262;2022-07-24T05:00:14;16.17;;;7.50;;
7759;SDS011;3924;48.830;9.262;2022-07-24T05:02:41;8.57;;;7.60;;
7759;SDS011;3924;48.830;9.262;2022-07-24T05:05:07;10.03;;;7.93;;
7759;SDS011;3924;48.830;9.262;2022-07-24T05:07:34;9.17;;;7.83;;
7759;SDS011;3924;48.830;9.262;2022-07-24T05:10:01;9.43;;;7.30;;
7759;SDS011;3924;48.830;9.262;2022-07-24T05:12:27;9.30;;;7.73;;
7759;SDS011;3924;48.830;9.262;2022-07-24T05:14:54;8.60;;;7.80;;
7759;SDS011;3924;48.830;9.262;2022-07-24T05:17:20;8.63;;;7.83;;
7759;SDS011;3924;48.830;9.262;2022-07-24T05:19:47;8.27;;;7.47;;
7759;SDS011;3924;48.830;9.262;2022-07-24T05:22:13;8.00;;;7.17;;
7759;SDS011;3924;48.830;9.262;2022-07-24T05:24:40;8.53;;;7.67;;
7759;SDS011;3924;48.830;9.262;2022-07-24T05:27:06;9.73;;;8.10;;
7759;SDS011;3924;48.830;9.262;2022-07-24T05:29:37;8.67;;;7.87;;
7759;SDS011;3924;48.830;9.262;2022-07-24T05:32:07;8.90;;;7.20;;
7759;SDS011;3924;48.830;9.262;2022-07-24T05:34:34;8.13;;;7.33;;
7759;SDS011;3924;48.830;9.262;2022-07-24T05:37:06;10.43;;;8.40;;
7759;SDS011;3924;48.830;9.262;2022-07-24T05:39:36;10.87;;;8.00;;
7759;SDS011;3924;48.830;9.262;2022-07-24T05:42:02;9.07;;;8.17;;
7759;SDS011;3924;48.830;9.262;2022-07-24T05:44:29;12.03;;;8.47;;
7759;SDS011;3924;48.830;9.262;2022-07-24T05:46:56;9.37;;;7.83;;
7759;SDS011;3924;48.830;9.262;2022-07-24T05:49:23;8.47;;;7.67;;
7759;SDS011;3924;48.830;9.262;2022-07-24T05:51:51;8.83;;;8.03;;
7759;SDS011;3924;48.830;9.262;2022-07-24T05:54:18;10.57;;;7.77;;
7759;SDS011;3924;48.830;9.262;2022-07-24T05:56:44;9.00;;;7.83;;
7759;SDS011;3924;48.830;9.262;2022-07-24T05:59:11;8.80;;;8.00;;
7759;SDS011;3924;48.830;9.262;2022-07-24T06:01:37;8.60;;;7.43;;
7759;SDS011;3924;48.830;9.262;2022-07-24T06:04:04;9.00;;;8.10;;
7759;SDS011;3924;48.830;9.262;2022-07-24T06:06:30;7.67;;;6.97;;
7759;SDS011;3924;48.830;9.262;2022-07-24T06:08:57;10.43;;;7.63;;
7759;SDS011;3924;48.830;9.262;2022-07-24T06:11:23;8.73;;;7.80;;
7759;SDS011;3924;48.830;9.262;2022-07-24T06:13:51;8.87;;;8.07;;
7759;SDS011;3924;48.830;9.262;2022-07-24T06:16:18;9.20;;;8.37;;
7759;SDS011;3924;48.830;9.262;2022-07-24T06:18:45;10.83;;;8.10;;
7759;SDS011;3924;48.830;9.262;2022-07-24T06:21:12;12.33;;;8.70;;
7759;SDS011;3924;48.830;9.262;2022-07-24T06:23:38;8.53;;;7.70;;
7759;SDS011;3924;48.830;9.262;2022-07-24T06:26:05;9.70;;;8.07;;
7759;SDS011;3924;48.830;9.262;2022-07-24T06:28:31;8.50;;;7.70;;
7759;SDS011;3924;48.830;9.262;2022-07-24T06:30:57;9.17;;;8.30;;
7759;SDS011;3924;48.830;9.262;2022-07-24T06:33:25;15.97;;;7.70;;
7759;SDS011;3924;48.830;9.262;2022-07-24T06:35:51;8.40;;;7.60;;
7759;SDS011;3924;48.830;9.262;2022-07-24T06:38:18;8.17;;;7.47;;
7759;SDS011;3924;48.830;9.262;2022-07-24T06:40:44;8.37;;;7.60;;
7759;SDS011;3924;48.830;9.262;2022-07-24T06:43:11;9.27;;;8.37;;
7759;SDS011;3924;48.830;9.262;2022-07-24T06:45:38;8.43;;;7.47;;
7759;SDS011;3924;48.830;9.262;2022-07-24T06:48:04;11.20;;;8.03;;
7759;SDS011;3924;48.830;9.262;2022-07-24T06:50:31;8.13;;;7.27;;
7759;SDS011;3924;48.830;9.262;2022-07-24T06:52:58;8.57;;;7.87;;
7759;SDS011;3924;48.830;9.262;2022-07-24T06:55:24;8.43;;;7.73;;
7759;SDS011;3924;48.830;9.262;2022-07-24T06:57:51;10.57;;;8.13;;
7759;SDS011;3924;48.830;9.262;2022-07-24T07:00:17;10.97;;;8.13;;
7759;SDS011;3924;48.830;9.262;2022-07-24T07:02:44;10.40;;;7.73;;
7759;SDS011;3924;48.830;9.262;2022-07-24T07:05:11;8.30;;;7.47;;
7759;SDS011;3924;48.830;9.262;2022-07-24T07:07:38;13.70;;;8.10;;
7759;SDS011;3924;48.830;9.262;2022-07-24T07:10:05;9.97;;;7.43;;
7759;SDS011;3924;48.830;9.262;2022-07-24T07:12:33;8.73;;;7.30;;
7759;SDS011;3924;48.830;9.262;2022-07-24T07:15:06;9.17;;;6.87;;
7759;SDS011;3924;48.830;9.262;2022-07-24T07:17:33;7.73;;;7.00;;
7759;SDS011;3924;48.830;9.262;2022-07-24T07:20:03;7.70;;;6.90;;
7759;SDS011;3924;48.830;9.262;2022-07-24T07:22:31;7.50;;;6.63;;
7759;SDS011;3924;48.830;9.262;2022-07-24T07:24:57;7.10;;;6.50;;
7759;SDS011;3924;48.830;9.262;2022-07-24T07:27:23;7.50;;;6.77;;
7759;SDS011;3924;48.830;9.262;2022-07-24T07:29:50;7.40;;;6.70;;
7759;SDS011;3924;48.830;9.262;2022-07-24T07:32:16;7.73;;;7.03;;
7759;SDS011;3924;48.830;9.262;2022-07-24T07:34:43;7.50;;;6.80;;
7759;SDS011;3924;48.830;9.262;2022-07-24T07:37:09;7.70;;;6.43;;
7759;SDS011;3924;48.830;9.262;2022-07-24T07:39:36;7.30;;;6.60;;
7759;SDS011;3924;48.830;9.262;2022-07-24T07:42:02;8.00;;;7.30;;
7759;SDS011;3924;48.830;9.262;2022-07-24T07:44:29;7.40;;;6.53;;
7759;SDS011;3924;48.830;9.262;2022-07-24T07:46:55;6.93;;;6.00;;
7759;SDS011;3924;48.830;9.262;2022-07-24T07:49:22;6.93;;;6.23;;
7759;SDS011;3924;48.830;9.262;2022-07-24T07:51:49;8.30;;;6.80;;
7759;SDS011;3924;48.830;9.262;2022-07-24T07:54:17;6.57;;;5.97;;
7759;SDS011;3924;48.830;9.262;2022-07-24T07:56:44;9.07;;;6.07;;
7759;SDS011;3924;48.830;9.262;2022-07-24T07:59:11;8.10;;;6.60;;
7759;SDS011;3924;48.830;9.262;2022-07-24T08:01:37;6.30;;;5.70;;
7759;SDS011;3924;48.830;9.262;2022-07-24T08:04:04;6.67;;;6.07;;
7759;SDS011;3924;48.830;9.262;2022-07-24T08:06:31;9.10;;;6.67;;
7759;SDS011;3924;48.830;9.262;2022-07-24T08:08:57;9.17;;;6.17;;
7759;SDS011;3924;48.830;9.262;2022-07-24T08:11:24;6.33;;;5.77;;
7759;SDS011;3924;48.830;9.262;2022-07-24T08:13:53;7.23;;;6.13;;
7759;SDS011;3924;48.830;9.262;2022-07-24T08:16:19;6.40;;;5.70;;
7759;SDS011;3924;48.830;9.262;2022-07-24T08:18:46;8.73;;;6.20;;
7759;SDS011;3924;48.830;9.262;2022-07-24T08:21:17;6.60;;;6.00;;
7759;SDS011;3924;48.830;9.262;2022-07-24T08:23:44;8.23;;;6.17;;
7759;SDS011;3924;48.830;9.262;2022-07-24T08:26:12;6.83;;;5.93;;
7759;SDS011;3924;48.830;9.262;2022-07-24T08:28:38;9.53;;;5.80;;
7759;SDS011;3924;48.830;9.262;2022-07-24T08:31:05;11.60;;;10.40;;
7759;SDS011;3924;48.830;9.262;2022-07-24T08:33:32;7.07;;;6.40;;
7759;SDS011;3924;48.830;9.262;2022-07-24T08:35:58;7.00;;;6.30;;
7759;SDS011;3924;48.830;9.262;2022-07-24T08:38:25;12.00;;;6.30;;
7759;SDS011;3924;48.830;9.262;2022-07-24T08:40:51;8.67;;;6.40;;
7759;SDS011;3924;48.830;9.262;2022-07-24T08:43:18;6.60;;;6.00;;
7759;SDS011;3924;48.830;9.262;2022-07-24T08:45:44;8.10;;;5.97;;
7759;SDS011;3924;48.830;9.262;2022-07-24T08:48:11;7.10;;;6.40;;
7759;SDS011;3924;48.830;9.262;2022-07-24T08:50:39;7.90;;;6.07;;
7759;SDS011;3924;48.830;9.262;2022-07-24T08:53:08;6.53;;;5.87;;
7759;SDS011;3924;48.830;9.262;2022-07-24T08:55:34;6.23;;;5.63;;
7759;SDS011;3924;48.830;9.262;2022-07-24T08:58:01;6.20;;;5.60;;
7759;SDS011;3924;48.830;9.262;2022-07-24T09:00:29;6.37;;;5.77;;
7759;SDS011;3924;48.830;9.262;2022-07-24T09:02:57;6.50;;;5.90;;
7759;SDS011;3924;48.830;9.262;2022-07-24T09:05:24;5.70;;;5.30;;
7759;SDS011;3924;48.830;9.262;2022-07-24T09:08:04;7.03;;;6.33;;
7759;SDS011;3924;48.830;9.262;2022-07-24T09:10:37;9.43;;;5.63;;
7759;SDS011;3924;48.830;9.262;2022-07-24T09:13:14;6.63;;;5.97;;
7759;SDS011;3924;48.830;9.262;2022-07-24T09:15:47;6.00;;;5.40;;
7759;SDS011;3924;48.830;9.262;2022-07-24T09:18:48;6.97;;;6.00;;
7759;SDS011;3924;48.830;9.262;2022-07-24T09:21:14;7.63;;;5.47;;
7759;SDS011;3924;48.830;9.262;2022-07-24T09:23:42;6.73;;;5.53;;
7759;SDS011;3924;48.830;9.262;2022-07-24T09:26:10;6.00;;;5.40;;
7759;SDS011;3924;48.830;9.262;2022-07-24T09:28:52;6.33;;;5.77;;
7759;SDS011;3924;48.830;9.262;2022-07-24T09:31:20;8.57;;;5.40;;
7759;SDS011;3924;48.830;9.262;2022-07-24T09:33:51;6.90;;;5.70;;
7759;SDS011;3924;48.830;9.262;2022-07-24T09:36:17;5.83;;;5.37;;
7759;SDS011;3924;48.830;9.262;2022-07-24T09:38:48;7.53;;;5.63;;
7759;SDS011;3924;48.830;9.262;2022-07-24T09:41:23;5.97;;;5.37;;
7759;SDS011;3924;48.830;9.262;2022-07-24T09:43:58;7.50;;;5.73;;
7759;SDS011;3924;48.830;9.262;2022-07-24T09:46:45;5.90;;;5.37;;
7759;SDS011;3924;48.830;9.262;2022-07-24T09:49:19;9.53;;;5.13;;
7759;SDS011;3924;48.830;9.262;2022-07-24T09:54:35;5.80;;;5.17;;
7759;SDS011;3924;48.830;9.262;2022-07-24T09:59:41;5.57;;;5.07;;
7759;SDS011;3924;48.830;9.262;2022-07-24T10:02:09;6.93;;;5.13;;
7759;SDS011;3924;48.830;9.262;2022-07-24T10:04:41;6.50;;;5.50;;
7759;SDS011;3924;48.830;9.262;2022-07-24T10:07:09;5.47;;;4.97;;
7759;SDS011;3924;48.830;9.262;2022-07-24T10:09:40;5.27;;;4.87;;
7759;SDS011;3924;48.830;9.262;2022-07-24T10:12:15;5.30;;;4.80;;
7759;SDS011;3924;48.830;9.262;2022-07-24T10:14:44;4.97;;;4.47;;
7759;SDS011;3924;48.830;9.262;2022-07-24T10:17:12;6.33;;;4.97;;
7759;SDS011;3924;48.830;9.262;2022-07-24T10:19:49;6.00;;;5.17;;
7759;SDS011;3924;48.830;9.262;2022-07-24T10:22:18;5.77;;;5.27;;
7759;SDS011;3924;48.830;9.262;2022-07-24T10:25:05;4.60;;;4.20;;
7759;SDS011;3924;48.830;9.262;2022-07-24T10:27:34;5.97;;;5.10;;
7759;SDS011;3924;48.830;9.262;2022-07-24T10:30:05;7.13;;;4.77;;
7759;SDS011;3924;48.830;9.262;2022-07-24T10:32:34;5.03;;;4.63;;
7759;SDS011;3924;48.830;9.262;2022-07-24T10:35:18;5.00;;;4.60;;
7759;SDS011;3924;48.830;9.262;2022-07-24T10:38:05;5.47;;;4.97;;
7759;SDS011;3924;48.830;9.262;2022-07-24T10:40:37;5.33;;;4.83;;
7759;SDS011;3924;48.830;9.262;2022-07-24T10:43:12;5.20;;;4.80;;
7759;SDS011;3924;48.830;9.262;2022-07-24T10:53:25;5.87;;;5.30;;
7759;SDS011;3924;48.830;9.262;2022-07-24T10:58:58;5.43;;;4.93;;
7759;SDS011;3924;48.830;9.262;2022-07-24T11:01:45;5.27;;;4.77;;
7759;SDS011;3924;48.830;9.262;2022-07-24T11:06:47;5.80;;;4.70;;
7759;SDS011;3924;48.830;9.262;2022-07-24T11:09:16;5.17;;;4.53;;
7759;SDS011;3924;48.830;9.262;2022-07-24T11:14:23;5.30;;;4.80;;
7759;SDS011;3924;48.830;9.262;2022-07-24T11:20:06;4.93;;;4.53;;
7759;SDS011;3924;48.830;9.262;2022-07-24T11:22:57;5.50;;;5.00;;
7759;SDS011;3924;48.830;9.262;2022-07-24T11:25:27;4.93;;;4.53;;
7759;SDS011;3924;48.830;9.262;2022-07-24T11:30:33;6.03;;;5.23;;
7759;SDS011;3924;48.830;9.262;2022-07-24T11:33:06;5.67;;;5.00;;
7759;SDS011;3924;48.830;9.262;2022-07-24T11:35:35;5.60;;;4.40;;
7759;SDS011;3924;48.830;9.262;2022-07-24T11:38:04;4.63;;;4.23;;
7759;SDS011;3924;48.830;9.262;2022-07-24T11:40:32;5.37;;;4.53;;
7759;SDS011;3924;48.830;9.262;2022-07-24T11:43:02;4.67;;;4.27;;
7759;SDS011;3924;48.830;9.262;2022-07-24T11:45:36;5.50;;;4.53;;
7759;SDS011;3924;48.830;9.262;2022-07-24T11:48:03;4.53;;;4.17;;
7759;SDS011;3924;48.830;9.262;2022-07-24T11:50:30;8.10;;;5.00;;
7759;SDS011;3924;48.830;9.262;2022-07-24T11:52:58;5.80;;;5.10;;
7759;SDS011;3924;48.830;9.262;2022-07-24T11:55:25;4.50;;;4.20;;
7759;SDS011;3924;48.830;9.262;2022-07-24T11:57:52;5.53;;;5.03;;
7759;SDS011;3924;48.830;9.262;2022-07-24T12:00:40;5.97;;;5.07;;
7759;SDS011;3924;48.830;9.262;2022-07-24T12:03:07;6.40;;;5.07;;
7759;SDS011;3924;48.830;9.262;2022-07-24T12:05:36;5.43;;;4.80;;
7759;SDS011;3924;48.830;9.262;2022-07-24T12:08:18;4.23;;;3.93;;
7759;SDS011;3924;48.830;9.262;2022-07-24T12:10:47;6.57;;;4.70;;
7759;SDS011;3924;48.830;9.262;2022-07-24T12:13:16;5.03;;;4.63;;
7759;SDS011;3924;48.830;9.262;2022-07-24T12:15:43;4.77;;;4.37;;
7759;SDS011;3924;48.830;9.262;2022-07-24T12:18:10;4.73;;;4.33;;
7759;SDS011;3924;48.830;9.262;2022-07-24T12:20:44;7.30;;;5.27;;
7759;SDS011;3924;48.830;9.262;2022-07-24T12:23:13;5.60;;;5.10;;
7759;SDS011;3924;48.830;9.262;2022-07-24T12:25:43;5.83;;;4.90;;
7759;SDS011;3924;48.830;9.262;2022-07-24T12:28:11;5.33;;;4.63;;
7759;SDS011;3924;48.830;9.262;2022-07-24T12:30:43;4.73;;;4.37;;
7759;SDS011;3924;48.830;9.262;2022-07-24T12:35:51;6.13;;;4.80;;
7759;SDS011;3924;48.830;9.262;2022-07-24T12:41:27;4.60;;;4.30;;
7759;SDS011;3924;48.830;9.262;2022-07-24T12:43:52;5.00;;;4.60;;
7759;SDS011;3924;48.830;9.262;2022-07-24T12:46:21;5.27;;;4.70;;
7759;SDS011;3924;48.830;9.262;2022-07-24T12:48:57;5.53;;;4.87;;
7759;SDS011;3924;48.830;9.262;2022-07-24T12:51:25;4.93;;;4.47;;
7759;SDS011;3924;48.830;9.262;2022-07-24T12:53:55;5.77;;;4.80;;
7759;SDS011;3924;48.830;9.262;2022-07-24T12:56:22;5.07;;;4.63;;
7759;SDS011;3924;48.830;9.262;2022-07-24T12:58:49;4.90;;;4.50;;
7759;SDS011;3924;48.830;9.262;2022-07-24T13:01:46;5.53;;;4.90;;
7759;SDS011;3924;48.830;9.262;2022-07-24T13:04:15;4.47;;;4.10;;
7759;SDS011;3924;48.830;9.262;2022-07-24T13:06:44;4.67;;;4.27;;
7759;SDS011;3924;48.830;9.262;2022-07-24T13:09:12;5.10;;;4.70;;
7759;SDS011;3924;48.830;9.262;2022-07-24T13:11:41;4.20;;;3.90;;
7759;SDS011;3924;48.830;9.262;2022-07-24T13:14:11;4.20;;;3.90;;
7759;SDS011;3924;48.830;9.262;2022-07-24T13:16:40;4.80;;;4.40;;
7759;SDS011;3924;48.830;9.262;2022-07-24T13:19:08;4.83;;;4.30;;
7759;SDS011;3924;48.830;9.262;2022-07-24T13:21:36;4.77;;;4.27;;
7759;SDS011;3924;48.830;9.262;2022-07-24T13:24:04;4.77;;;4.30;;
7759;SDS011;3924;48.830;9.262;2022-07-24T13:26:32;4.87;;;4.57;;
7759;SDS011;3924;48.830;9.262;2022-07-24T13:28:58;4.73;;;4.33;;
7759;SDS011;3924;48.830;9.262;2022-07-24T13:31:25;4.87;;;4.57;;
7759;SDS011;3924;48.830;9.262;2022-07-24T13:33:52;7.20;;;4.70;;
7759;SDS011;3924;48.830;9.262;2022-07-24T13:36:18;5.17;;;4.73;;
7759;SDS011;3924;48.830;9.262;2022-07-24T13:38:48;5.03;;;4.53;;
7759;SDS011;3924;48.830;9.262;2022-07-24T13:41:15;4.40;;;4.10;;
7759;SDS011;3924;48.830;9.262;2022-07-24T13:43:45;5.00;;;4.07;;
7759;SDS011;3924;48.830;9.262;2022-07-24T13:46:12;7.33;;;4.70;;
7759;SDS011;3924;48.830;9.262;2022-07-24T13:48:40;4.93;;;4.53;;
7759;SDS011;3924;48.830;9.262;2022-07-24T13:51:07;4.37;;;4.07;;
7759;SDS011;3924;48.830;9.262;2022-07-24T13:53:33;4.97;;;4.50;;
7759;SDS011;3924;48.830;9.262;2022-07-24T13:56:00;5.17;;;4.67;;
7759;SDS011;3924;48.830;9.262;2022-07-24T13:58:26;4.60;;;4.20;;
7759;SDS011;3924;48.830;9.262;2022-07-24T14:00:53;4.80;;;4.40;;
7759;SDS011;3924;48.830;9.262;2022-07-24T14:03:22;4.73;;;4.17;;
7759;SDS011;3924;48.830;9.262;2022-07-24T14:06:05;5.17;;;4.33;;
7759;SDS011;3924;48.830;9.262;2022-07-24T14:08:37;4.80;;;4.40;;
7759;SDS011;3924;48.830;9.262;2022-07-24T14:11:06;4.93;;;4.53;;
7759;SDS011;3924;48.830;9.262;2022-07-24T14:13:32;4.47;;;4.07;;
7759;SDS011;3924;48.830;9.262;2022-07-24T14:15:59;4.73;;;4.37;;
7759;SDS011;3924;48.830;9.262;2022-07-24T14:18:26;8.73;;;4.87;;
7759;SDS011;3924;48.830;9.262;2022-07-24T14:20:53;4.60;;;4.30;;
7759;SDS011;3924;48.830;9.262;2022-07-24T14:23:19;4.93;;;4.33;;
7759;SDS011;3924;48.830;9.262;2022-07-24T14:25:46;5.10;;;4.70;;
7759;SDS011;3924;48.830;9.262;2022-07-24T14:28:14;5.00;;;4.60;;
7759;SDS011;3924;48.830;9.262;2022-07-24T14:30:41;5.03;;;4.57;;
7759;SDS011;3924;48.830;9.262;2022-07-24T14:33:07;4.67;;;4.20;;
7759;SDS011;3924;48.830;9.262;2022-07-24T14:35:34;5.50;;;5.00;;
7759;SDS011;3924;48.830;9.262;2022-07-24T14:38:01;4.63;;;4.23;;
7759;SDS011;3924;48.830;9.262;2022-07-24T14:40:28;4.30;;;4.00;;
7759;SDS011;3924;48.830;9.262;2022-07-24T14:42:55;5.03;;;4.20;;
7759;SDS011;3924;48.830;9.262;2022-07-24T14:45:22;5.07;;;4.63;;
7759;SDS011;3924;48.830;9.262;2022-07-24T14:47:49;4.70;;;4.30;;
7759;SDS011;3924;48.830;9.262;2022-07-24T14:50:15;4.60;;;4.30;;
7759;SDS011;3924;48.830;9.262;2022-07-24T14:52:42;4.67;;;4.37;;
7759;SDS011;3924;48.830;9.262;2022-07-24T14:55:08;4.90;;;4.13;;
7759;SDS011;3924;48.830;9.262;2022-07-24T14:57:35;4.87;;;4.47;;
7759;SDS011;3924;48.830;9.262;2022-07-24T15:00:03;4.70;;;4.30;;
7759;SDS011;3924;48.830;9.262;2022-07-24T15:02:31;4.97;;;4.40;;
7759;SDS011;3924;48.830;9.262;2022-07-24T15:04:58;5.60;;;4.43;;
7759;SDS011;3924;48.830;9.262;2022-07-24T15:07:25;4.47;;;4.07;;
7759;SDS011;3924;48.830;9.262;2022-07-24T15:09:55;7.00;;;4.37;;
7759;SDS011;3924;48.830;9.262;2022-07-24T15:12:21;5.20;;;4.70;;
7759;SDS011;3924;48.830;9.262;2022-07-24T15:14:48;4.23;;;4.00;;
7759;SDS011;3924;48.830;9.262;2022-07-24T15:17:14;5.30;;;4.63;;
7759;SDS011;3924;48.830;9.262;2022-07-24T15:19:41;4.80;;;4.40;;
7759;SDS011;3924;48.830;9.262;2022-07-24T15:22:07;4.60;;;4.30;;
7759;SDS011;3924;48.830;9.262;2022-07-24T15:24:34;4.67;;;4.27;;
7759;SDS011;3924;48.830;9.262;2022-07-24T15:27:00;4.87;;;4.10;;
7759;SDS011;3924;48.830;9.262;2022-07-24T15:29:27;4.60;;;4.20;;
7759;SDS011;3924;48.830;9.262;2022-07-24T15:31:53;5.03;;;4.53;;
7759;SDS011;3924;48.830;9.262;2022-07-24T15:34:20;6.20;;;4.45;;
7759;SDS011;3924;48.830;9.262;2022-07-24T15:36:47;7.27;;;4.47;;
7759;SDS011;3924;48.830;9.262;2022-07-24T15:39:13;5.43;;;4.93;;
7759;SDS011;3924;48.830;9.262;2022-07-24T15:41:40;4.63;;;4.30;;
7759;SDS011;3924;48.830;9.262;2022-07-24T15:44:06;5.80;;;5.30;;
7759;SDS011;3924;48.830;9.262;2022-07-24T15:46:34;5.25;;;4.20;;
7759;SDS011;3924;48.830;9.262;2022-07-24T15:49:03;5.90;;;3.90;;
7759;SDS011;3924;48.830;9.262;2022-07-24T15:51:30;4.53;;;4.20;;
7759;SDS011;3924;48.830;9.262;2022-07-24T15:53:58;5.13;;;4.73;;